sensor_id;sensor_type;location;lat;lon;timestamp;pressure;altitude;pressure_sealevel;temperature;humidity
34983;BME280;21187;50.976;13.720;2023-01-30T00:01:56;98273.75;;;0.75;50.51
34983;BME280;21187;50.976;13.720;2023-01-30T00:06:58;98262.91;;;0.91;50.13
34983;BME280;21187;50.976;13.720;2023-01-30T00:12:00;98256.56;;;0.87;50.03
34983;BME280;21187;50.976;13.720;2023-01-30T00:17:02;98256.56;;;0.87;49.65
34983;BME280;21187;50.976;13.720;2023-01-30T00:22:04;98249.63;;;0.86;49.96
34983;BME280;21187;50.976;13.720;2023-01-30T00:27:06;98244.31;;;0.86;49.91
34983;BME280;21187;50.976;13.720;2023-01-30T00:32:09;98252.81;;;0.88;49.87
34983;BME280;21187;50.976;13.720;2023-01-30T00:37:14;98235.22;;;0.87;49.40
34983;BME280;21187;50.976;13.720;2023-01-30T00:42:15;98216.06;;;0.85;49.54
34983;BME280;21187;50.976;13.720;2023-01-30T00:47:36;98223.53;;;0.82;49.45
34983;BME280;21187;50.976;13.720;2023-01-30T00:52:38;98211.88;;;0.78;49.25
34983;BME280;21187;50.976;13.720;2023-01-30T00:57:40;98183.63;;;0.77;49.44
34983;BME280;21187;50.976;13.720;2023-01-30T01:02:42;98175.91;;;0.76;49.34
34983;BME280;21187;50.976;13.720;2023-01-30T01:07:44;98174.53;;;0.78;49.48
34983;BME280;21187;50.976;13.720;2023-01-30T01:12:46;98178.75;;;0.85;49.96
34983;BME280;21187;50.976;13.720;2023-01-30T01:17:49;98184.00;;;0.90;49.74
34983;BME280;21187;50.976;13.720;2023-01-30T01:22:52;98149.06;;;0.91;50.22
34983;BME280;21187;50.976;13.720;2023-01-30T01:27:55;98137.22;;;0.97;50.46
34983;BME280;21187;50.976;13.720;2023-01-30T01:32:57;98113.47;;;1.01;50.84
34983;BME280;21187;50.976;13.720;2023-01-30T01:37:58;98106.53;;;1.00;51.31
34983;BME280;21187;50.976;13.720;2023-01-30T01:43:01;98069.94;;;1.06;51.36
34983;BME280;21187;50.976;13.720;2023-01-30T01:48:11;98092.78;;;1.12;51.74
34983;BME280;21187;50.976;13.720;2023-01-30T01:53:20;98073.25;;;1.16;52.13
34983;BME280;21187;50.976;13.720;2023-01-30T01:58:30;98072.06;;;1.23;52.13
34983;BME280;21187;50.976;13.720;2023-01-30T02:03:37;98041.47;;;1.20;53.24
34983;BME280;21187;50.976;13.720;2023-01-30T02:08:48;98014.19;;;1.23;53.54
34983;BME280;21187;50.976;13.720;2023-01-30T02:13:52;97980.81;;;1.26;53.71
34983;BME280;21187;50.976;13.720;2023-01-30T02:18:55;97982.56;;;1.30;54.26
34983;BME280;21187;50.976;13.720;2023-01-30T02:35:32;97964.63;;;1.50;55.32
34983;BME280;21187;50.976;13.720;2023-01-30T02:51:37;97999.28;;;1.97;55.50
34983;BME280;21187;50.976;13.720;2023-01-30T02:56:56;97964.84;;;2.09;55.42
34983;BME280;21187;50.976;13.720;2023-01-30T03:07:20;97915.34;;;2.26;56.06
34983;BME280;21187;50.976;13.720;2023-01-30T03:17:51;97906.13;;;2.55;55.88
34983;BME280;21187;50.976;13.720;2023-01-30T03:22:54;97908.09;;;2.63;55.25
34983;BME280;21187;50.976;13.720;2023-01-30T03:27:57;97873.38;;;2.72;55.58
34983;BME280;21187;50.976;13.720;2023-01-30T03:33:00;97848.59;;;2.80;55.70
34983;BME280;21187;50.976;13.720;2023-01-30T03:38:02;97845.63;;;2.90;55.70
34983;BME280;21187;50.976;13.720;2023-01-30T03:43:04;97838.75;;;2.98;55.28
34983;BME280;21187;50.976;13.720;2023-01-30T03:48:07;97830.59;;;3.03;55.84
34983;BME280;21187;50.976;13.720;2023-01-30T03:53:09;97806.06;;;3.10;55.76
34983;BME280;21187;50.976;13.720;2023-01-30T03:58:11;97795.53;;;3.13;55.47
34983;BME280;21187;50.976;13.720;2023-01-30T04:03:13;97796.03;;;3.15;55.46
34983;BME280;21187;50.976;13.720;2023-01-30T04:08:16;97807.06;;;3.23;55.06
34983;BME280;21187;50.976;13.720;2023-01-30T04:13:18;97806.78;;;3.33;54.94
34983;BME280;21187;50.976;13.720;2023-01-30T04:18:20;97795.81;;;3.43;54.59
34983;BME280;21187;50.976;13.720;2023-01-30T04:23:25;97784.47;;;3.46;55.01
34983;BME280;21187;50.976;13.720;2023-01-30T04:28:27;97783.03;;;3.49;55.07
34983;BME280;21187;50.976;13.720;2023-01-30T04:33:29;97766.84;;;3.54;55.34
34983;BME280;21187;50.976;13.720;2023-01-30T04:38:32;97761.00;;;3.61;54.79
34983;BME280;21187;50.976;13.720;2023-01-30T04:43:35;97765.72;;;3.64;54.86
34983;BME280;21187;50.976;13.720;2023-01-30T04:48:42;97747.94;;;3.68;54.97
34983;BME280;21187;50.976;13.720;2023-01-30T04:53:45;97752.69;;;3.71;54.67
34983;BME280;21187;50.976;13.720;2023-01-30T04:58:47;97729.97;;;3.77;55.00
34983;BME280;21187;50.976;13.720;2023-01-30T05:03:52;97712.66;;;3.83;54.90
34983;BME280;21187;50.976;13.720;2023-01-30T05:08:55;97683.97;;;3.93;54.48
34983;BME280;21187;50.976;13.720;2023-01-30T05:13:57;97670.41;;;3.98;54.50
34983;BME280;21187;50.976;13.720;2023-01-30T05:19:01;97664.75;;;3.91;54.78
34983;BME280;21187;50.976;13.720;2023-01-30T05:24:03;97654.97;;;3.95;54.35
34983;BME280;21187;50.976;13.720;2023-01-30T05:29:17;97659.03;;;4.01;54.83
34983;BME280;21187;50.976;13.720;2023-01-30T05:34:19;97655.25;;;4.02;54.57
34983;BME280;21187;50.976;13.720;2023-01-30T05:39:21;97641.25;;;4.05;54.97
34983;BME280;21187;50.976;13.720;2023-01-30T05:44:23;97651.63;;;4.07;55.58
34983;BME280;21187;50.976;13.720;2023-01-30T05:49:24;97651.81;;;4.02;55.63
34983;BME280;21187;50.976;13.720;2023-01-30T05:54:26;97641.88;;;4.02;56.08
34983;BME280;21187;50.976;13.720;2023-01-30T05:59:28;97611.13;;;4.08;56.05
34983;BME280;21187;50.976;13.720;2023-01-30T06:04:30;97624.97;;;4.10;56.25
34983;BME280;21187;50.976;13.720;2023-01-30T06:09:32;97610.31;;;4.08;56.45
34983;BME280;21187;50.976;13.720;2023-01-30T06:14:34;97616.25;;;4.22;56.38
34983;BME280;21187;50.976;13.720;2023-01-30T06:19:35;97617.06;;;4.23;55.74
34983;BME280;21187;50.976;13.720;2023-01-30T06:24:37;97606.78;;;4.25;56.22
34983;BME280;21187;50.976;13.720;2023-01-30T06:29:39;97598.91;;;4.28;56.17
34983;BME280;21187;50.976;13.720;2023-01-30T06:34:41;97604.22;;;4.37;56.34
34983;BME280;21187;50.976;13.720;2023-01-30T06:39:43;97618.56;;;4.41;56.20
34983;BME280;21187;50.976;13.720;2023-01-30T06:44:45;97590.81;;;4.37;56.44
34983;BME280;21187;50.976;13.720;2023-01-30T06:49:47;97635.00;;;4.31;57.65
34983;BME280;21187;50.976;13.720;2023-01-30T06:54:49;97611.66;;;4.31;57.88
34983;BME280;21187;50.976;13.720;2023-01-30T06:59:51;97610.69;;;4.36;57.84
34983;BME280;21187;50.976;13.720;2023-01-30T07:04:53;97604.09;;;4.25;58.04
34983;BME280;21187;50.976;13.720;2023-01-30T07:09:55;97605.28;;;4.06;59.73
34983;BME280;21187;50.976;13.720;2023-01-30T07:15:09;97601.09;;;3.88;60.57
34983;BME280;21187;50.976;13.720;2023-01-30T07:20:11;97600.16;;;3.83;61.37
34983;BME280;21187;50.976;13.720;2023-01-30T07:25:13;97594.16;;;3.87;61.64
34983;BME280;21187;50.976;13.720;2023-01-30T07:30:15;97609.09;;;3.96;62.25
34983;BME280;21187;50.976;13.720;2023-01-30T07:35:17;97607.34;;;4.09;61.82
34983;BME280;21187;50.976;13.720;2023-01-30T07:40:20;97588.53;;;4.18;61.82
34983;BME280;21187;50.976;13.720;2023-01-30T07:45:23;97579.81;;;4.30;61.07
34983;BME280;21187;50.976;13.720;2023-01-30T07:50:25;97576.59;;;4.45;60.23
34983;BME280;21187;50.976;13.720;2023-01-30T07:55:27;97573.06;;;4.54;60.04
34983;BME280;21187;50.976;13.720;2023-01-30T08:00:29;97576.84;;;4.53;59.96
34983;BME280;21187;50.976;13.720;2023-01-30T08:05:31;97575.31;;;4.52;59.92
34983;BME280;21187;50.976;13.720;2023-01-30T08:10:33;97582.88;;;4.49;60.37
34983;BME280;21187;50.976;13.720;2023-01-30T08:15:35;97570.75;;;4.43;60.47
34983;BME280;21187;50.976;13.720;2023-01-30T08:20:37;97555.06;;;4.33;60.88
34983;BME280;21187;50.976;13.720;2023-01-30T08:25:39;97576.69;;;4.28;61.72
34983;BME280;21187;50.976;13.720;2023-01-30T08:30:42;97564.84;;;4.29;61.79
34983;BME280;21187;50.976;13.720;2023-01-30T08:35:44;97562.81;;;4.26;61.61
34983;BME280;21187;50.976;13.720;2023-01-30T08:40:46;97587.03;;;4.38;62.16
34983;BME280;21187;50.976;13.720;2023-01-30T08:45:48;97563.50;;;4.44;61.56
34983;BME280;21187;50.976;13.720;2023-01-30T08:50:51;97559.53;;;4.50;61.49
34983;BME280;21187;50.976;13.720;2023-01-30T08:55:53;97558.84;;;4.62;61.11
34983;BME280;21187;50.976;13.720;2023-01-30T09:00:55;97563.22;;;4.88;60.87
34983;BME280;21187;50.976;13.720;2023-01-30T09:05:57;97574.69;;;4.97;60.65
34983;BME280;21187;50.976;13.720;2023-01-30T09:11:01;97574.03;;;5.00;60.44
34983;BME280;21187;50.976;13.720;2023-01-30T09:16:05;97561.06;;;5.02;60.08
34983;BME280;21187;50.976;13.720;2023-01-30T09:21:08;97555.91;;;4.97;60.05
34983;BME280;21187;50.976;13.720;2023-01-30T09:26:11;97579.88;;;5.02;60.20
34983;BME280;21187;50.976;13.720;2023-01-30T09:31:12;97552.03;;;5.07;60.08
34983;BME280;21187;50.976;13.720;2023-01-30T09:36:14;97576.94;;;5.16;60.04
34983;BME280;21187;50.976;13.720;2023-01-30T09:46:55;97568.13;;;5.07;59.57
34983;BME280;21187;50.976;13.720;2023-01-30T09:52:26;97537.84;;;5.06;59.95
34983;BME280;21187;50.976;13.720;2023-01-30T09:57:34;97540.00;;;5.13;59.92
34983;BME280;21187;50.976;13.720;2023-01-30T10:13:11;97512.03;;;5.47;58.57
34983;BME280;21187;50.976;13.720;2023-01-30T10:29:05;97514.25;;;5.91;57.41
34983;BME280;21187;50.976;13.720;2023-01-30T10:34:12;97504.50;;;5.99;56.22
34983;BME280;21187;50.976;13.720;2023-01-30T10:39:33;97511.47;;;6.00;56.52
34983;BME280;21187;50.976;13.720;2023-01-30T10:44:47;97521.28;;;5.96;56.11
34983;BME280;21187;50.976;13.720;2023-01-30T10:49:55;97509.44;;;5.97;56.13
34983;BME280;21187;50.976;13.720;2023-01-30T11:05:20;97504.69;;;5.81;56.18
34983;BME280;21187;50.976;13.720;2023-01-30T11:10:26;97513.19;;;5.71;56.49
34983;BME280;21187;50.976;13.720;2023-01-30T11:15:41;97511.94;;;5.69;56.66
34983;BME280;21187;50.976;13.720;2023-01-30T11:25:58;97534.88;;;5.54;57.16
34983;BME280;21187;50.976;13.720;2023-01-30T11:31:26;97520.53;;;5.49;57.29
34983;BME280;21187;50.976;13.720;2023-01-30T11:36:42;97508.91;;;5.45;57.62
34983;BME280;21187;50.976;13.720;2023-01-30T11:47:03;97515.16;;;5.37;57.43
34983;BME280;21187;50.976;13.720;2023-01-30T11:52:07;97505.38;;;5.32;58.14
34983;BME280;21187;50.976;13.720;2023-01-30T11:57:14;97505.38;;;5.32;57.75
34983;BME280;21187;50.976;13.720;2023-01-30T12:07:26;97494.31;;;5.34;57.89
34983;BME280;21187;50.976;13.720;2023-01-30T12:12:30;97482.94;;;5.37;57.57
34983;BME280;21187;50.976;13.720;2023-01-30T12:23:04;97453.75;;;5.48;58.10
34983;BME280;21187;50.976;13.720;2023-01-30T12:28:34;97443.34;;;5.59;57.66
34983;BME280;21187;50.976;13.720;2023-01-30T12:33:39;97450.28;;;5.60;57.42
34983;BME280;21187;50.976;13.720;2023-01-30T13:05:32;97425.78;;;5.74;57.23
34983;BME280;21187;50.976;13.720;2023-01-30T13:16:40;97413.91;;;5.75;57.25
34983;BME280;21187;50.976;13.720;2023-01-30T13:27:14;97418.03;;;5.84;56.99
34983;BME280;21187;50.976;13.720;2023-01-30T13:37:27;97417.84;;;6.02;56.74
34983;BME280;21187;50.976;13.720;2023-01-30T13:53:33;97398.50;;;6.37;55.14
34983;BME280;21187;50.976;13.720;2023-01-30T13:58:55;97388.72;;;7.81;53.81
34983;BME280;21187;50.976;13.720;2023-01-30T14:05:02;97404.69;;;9.70;49.22
34983;BME280;21187;50.976;13.720;2023-01-30T14:15:20;97415.59;;;7.62;50.21
34983;BME280;21187;50.976;13.720;2023-01-30T14:20:25;97405.22;;;7.00;52.28
34983;BME280;21187;50.976;13.720;2023-01-30T14:35:31;97423.69;;;7.30;50.88
34983;BME280;21187;50.976;13.720;2023-01-30T14:40:35;97426.03;;;6.59;52.73
34983;BME280;21187;50.976;13.720;2023-01-30T14:45:48;97444.47;;;6.20;54.08
34983;BME280;21187;50.976;13.720;2023-01-30T14:56:44;97432.94;;;5.94;54.84
34983;BME280;21187;50.976;13.720;2023-01-30T15:02:00;97437.53;;;5.94;54.73
34983;BME280;21187;50.976;13.720;2023-01-30T15:07:08;97428.78;;;5.97;54.98
34983;BME280;21187;50.976;13.720;2023-01-30T15:12:35;97428.34;;;5.95;55.15
34983;BME280;21187;50.976;13.720;2023-01-30T15:34:19;97486.56;;;5.78;55.73
34983;BME280;21187;50.976;13.720;2023-01-30T15:39:26;97484.53;;;5.75;56.32
34983;BME280;21187;50.976;13.720;2023-01-30T15:45:10;97508.50;;;5.68;56.37
34983;BME280;21187;50.976;13.720;2023-01-30T15:50:15;97504.84;;;5.39;58.22
34983;BME280;21187;50.976;13.720;2023-01-30T15:55:33;97513.94;;;5.13;58.90
34983;BME280;21187;50.976;13.720;2023-01-30T16:00:43;97533.34;;;4.98;60.38
34983;BME280;21187;50.976;13.720;2023-01-30T16:05:47;97538.94;;;5.05;59.82
34983;BME280;21187;50.976;13.720;2023-01-30T16:10:50;97536.06;;;5.10;59.79
34983;BME280;21187;50.976;13.720;2023-01-30T16:16:01;97532.75;;;5.13;59.68
34983;BME280;21187;50.976;13.720;2023-01-30T16:21:08;97542.75;;;5.04;60.15
34983;BME280;21187;50.976;13.720;2023-01-30T16:26:13;97565.59;;;5.10;60.05
34983;BME280;21187;50.976;13.720;2023-01-30T16:31:23;97556.91;;;5.13;60.13
34983;BME280;21187;50.976;13.720;2023-01-30T16:41:37;97562.88;;;5.31;59.52
34983;BME280;21187;50.976;13.720;2023-01-30T16:52:01;97555.47;;;5.49;58.81
34983;BME280;21187;50.976;13.720;2023-01-30T16:57:04;97567.69;;;5.59;58.29
34983;BME280;21187;50.976;13.720;2023-01-30T17:02:06;97569.81;;;5.66;58.21
34983;BME280;21187;50.976;13.720;2023-01-30T17:07:31;97577.66;;;5.71;58.11
34983;BME280;21187;50.976;13.720;2023-01-30T17:12:35;97580.78;;;5.61;58.49
34983;BME280;21187;50.976;13.720;2023-01-30T17:17:41;97579.63;;;5.49;58.64
34983;BME280;21187;50.976;13.720;2023-01-30T17:22:45;97590.09;;;5.42;59.01
34983;BME280;21187;50.976;13.720;2023-01-30T17:27:47;97591.88;;;5.38;59.56
34983;BME280;21187;50.976;13.720;2023-01-30T17:32:49;97601.50;;;5.39;59.30
34983;BME280;21187;50.976;13.720;2023-01-30T17:37:51;97589.91;;;5.47;59.18
34983;BME280;21187;50.976;13.720;2023-01-30T17:43:05;97594.31;;;5.52;58.92
34983;BME280;21187;50.976;13.720;2023-01-30T17:48:08;97594.44;;;5.56;59.05
34983;BME280;21187;50.976;13.720;2023-01-30T17:53:12;97621.72;;;5.58;58.63
34983;BME280;21187;50.976;13.720;2023-01-30T17:58:15;97618.47;;;5.52;58.97
34983;BME280;21187;50.976;13.720;2023-01-30T18:03:20;97637.94;;;5.49;59.42
34983;BME280;21187;50.976;13.720;2023-01-30T18:08:22;97629.56;;;5.50;59.08
34983;BME280;21187;50.976;13.720;2023-01-30T18:13:25;97654.44;;;5.60;59.22
34983;BME280;21187;50.976;13.720;2023-01-30T18:18:27;97668.31;;;5.62;59.30
34983;BME280;21187;50.976;13.720;2023-01-30T18:23:30;97683.78;;;5.65;58.98
34983;BME280;21187;50.976;13.720;2023-01-30T18:28:32;97713.38;;;5.56;58.88
34983;BME280;21187;50.976;13.720;2023-01-30T18:33:35;97718.38;;;5.45;59.21
34983;BME280;21187;50.976;13.720;2023-01-30T18:38:38;97728.81;;;5.38;59.93
34983;BME280;21187;50.976;13.720;2023-01-30T18:43:42;97738.13;;;5.41;59.82
34983;BME280;21187;50.976;13.720;2023-01-30T18:48:45;97750.31;;;5.38;60.33
34983;BME280;21187;50.976;13.720;2023-01-30T18:53:51;97760.88;;;5.43;59.83
34983;BME280;21187;50.976;13.720;2023-01-30T18:58:54;97770.31;;;5.49;59.47
34983;BME280;21187;50.976;13.720;2023-01-30T19:03:59;97774.59;;;5.50;59.58
34983;BME280;21187;50.976;13.720;2023-01-30T19:09:01;97779.28;;;5.54;59.49
34983;BME280;21187;50.976;13.720;2023-01-30T19:14:04;97787.16;;;5.59;59.38
34983;BME280;21187;50.976;13.720;2023-01-30T19:19:08;97804.38;;;5.58;59.34
34983;BME280;21187;50.976;13.720;2023-01-30T19:24:14;97798.81;;;5.63;58.99
34983;BME280;21187;50.976;13.720;2023-01-30T19:29:17;97816.34;;;5.69;58.71
34983;BME280;21187;50.976;13.720;2023-01-30T19:34:19;97832.13;;;5.71;58.71
34983;BME280;21187;50.976;13.720;2023-01-30T19:39:21;97831.47;;;5.74;58.52
34983;BME280;21187;50.976;13.720;2023-01-30T19:44:24;97856.47;;;5.74;58.58
34983;BME280;21187;50.976;13.720;2023-01-30T19:49:26;97863.34;;;5.84;57.96
34983;BME280;21187;50.976;13.720;2023-01-30T19:54:29;97861.91;;;5.87;58.02
34983;BME280;21187;50.976;13.720;2023-01-30T19:59:32;97885.00;;;5.88;58.13
34983;BME280;21187;50.976;13.720;2023-01-30T20:04:39;97887.50;;;5.93;57.76
34983;BME280;21187;50.976;13.720;2023-01-30T20:09:42;97896.00;;;5.95;57.79
34983;BME280;21187;50.976;13.720;2023-01-30T20:14:44;97909.28;;;6.00;57.72
34983;BME280;21187;50.976;13.720;2023-01-30T20:19:47;97921.63;;;6.01;57.68
34983;BME280;21187;50.976;13.720;2023-01-30T20:24:49;97923.81;;;5.99;57.63
34983;BME280;21187;50.976;13.720;2023-01-30T20:29:52;97914.81;;;6.04;57.15
34983;BME280;21187;50.976;13.720;2023-01-30T20:34:54;97924.13;;;6.06;56.89
34983;BME280;21187;50.976;13.720;2023-01-30T20:39:56;97918.75;;;6.06;56.67
34983;BME280;21187;50.976;13.720;2023-01-30T20:44:58;97925.22;;;6.05;56.96
34983;BME280;21187;50.976;13.720;2023-01-30T20:50:00;97926.66;;;6.03;56.92
34983;BME280;21187;50.976;13.720;2023-01-30T20:55:03;97934.09;;;5.97;57.09
34983;BME280;21187;50.976;13.720;2023-01-30T21:00:06;97938.22;;;5.94;57.11
34983;BME280;21187;50.976;13.720;2023-01-30T21:05:08;97952.63;;;5.90;56.86
34983;BME280;21187;50.976;13.720;2023-01-30T21:10:10;97970.69;;;5.80;57.13
34983;BME280;21187;50.976;13.720;2023-01-30T21:15:12;97960.88;;;5.84;57.10
34983;BME280;21187;50.976;13.720;2023-01-30T21:20:14;97974.13;;;5.90;56.82
34983;BME280;21187;50.976;13.720;2023-01-30T21:25:16;98006.38;;;5.90;56.77
34983;BME280;21187;50.976;13.720;2023-01-30T21:30:19;97996.94;;;5.83;57.19
34983;BME280;21187;50.976;13.720;2023-01-30T21:35:21;97999.56;;;5.92;56.87
34983;BME280;21187;50.976;13.720;2023-01-30T21:40:23;98003.38;;;6.00;56.62
34983;BME280;21187;50.976;13.720;2023-01-30T21:45:43;98003.19;;;5.96;56.76
34983;BME280;21187;50.976;13.720;2023-01-30T21:50:45;98036.41;;;5.92;56.85
34983;BME280;21187;50.976;13.720;2023-01-30T21:55:50;98028.88;;;5.76;57.69
34983;BME280;21187;50.976;13.720;2023-01-30T22:00:52;98022.28;;;5.65;58.36
34983;BME280;21187;50.976;13.720;2023-01-30T22:05:54;98041.59;;;5.49;58.97
34983;BME280;21187;50.976;13.720;2023-01-30T22:11:06;98038.59;;;5.42;59.34
34983;BME280;21187;50.976;13.720;2023-01-30T22:16:14;98048.41;;;5.38;59.72
34983;BME280;21187;50.976;13.720;2023-01-30T22:21:18;98051.25;;;5.42;59.63
34983;BME280;21187;50.976;13.720;2023-01-30T22:26:23;98055.66;;;5.46;60.00
34983;BME280;21187;50.976;13.720;2023-01-30T22:31:29;98058.81;;;5.48;59.89
34983;BME280;21187;50.976;13.720;2023-01-30T22:36:33;98082.34;;;5.52;59.45
34983;BME280;21187;50.976;13.720;2023-01-30T22:41:35;98076.66;;;5.53;58.85
34983;BME280;21187;50.976;13.720;2023-01-30T22:46:38;98098.63;;;5.55;58.80
34983;BME280;21187;50.976;13.720;2023-01-30T22:51:40;98107.00;;;5.54;58.50
34983;BME280;21187;50.976;13.720;2023-01-30T22:56:46;98108.59;;;5.55;58.08
34983;BME280;21187;50.976;13.720;2023-01-30T23:01:49;98117.75;;;5.54;57.92
34983;BME280;21187;50.976;13.720;2023-01-30T23:06:51;98119.16;;;5.51;57.82
34983;BME280;21187;50.976;13.720;2023-01-30T23:11:55;98122.81;;;5.46;57.42
34983;BME280;21187;50.976;13.720;2023-01-30T23:17:17;98112.69;;;5.43;57.79
34983;BME280;21187;50.976;13.720;2023-01-30T23:22:38;98109.19;;;5.52;57.41
34983;BME280;21187;50.976;13.720;2023-01-30T23:27:40;98110.63;;;5.58;57.00
34983;BME280;21187;50.976;13.720;2023-01-30T23:32:42;98094.19;;;5.59;57.08
34983;BME280;21187;50.976;13.720;2023-01-30T23:37:44;98116.00;;;5.66;56.43
34983;BME280;21187;50.976;13.720;2023-01-30T23:43:04;98129.72;;;5.74;56.21
34983;BME280;21187;50.976;13.720;2023-01-30T23:48:07;98125.63;;;5.76;56.43
34983;BME280;21187;50.976;13.720;2023-01-30T23:53:09;98125.63;;;5.76;56.50
34983;BME280;21187;50.976;13.720;2023-01-30T23:58:11;98112.50;;;5.83;56.21
